Wetterdaten: Woche 20.09.10 - 26.09.10 (KW38)
Datum Zeit Temperatur Luftfeuchte Luftdruck Niederschlag Wind Richtung Sonnenschein Solar Taupunkt Windchill Windben
20.09.2010 00:00 8.8 C 93 % 1019.0 hPa 0.0 l/m 0.6 km/h (0 Bft) O 0.00 h 0 W/m 7.8 C 8.8 C 1.2 km/h (1 Bft)
20.09.2010 01:00 8.0 C 95 % 1018.7 hPa 0.0 l/m 0.4 km/h (0 Bft) O 0.00 h 0 W/m 7.2 C 8.0 C 1.1 km/h (1 Bft)
20.09.2010 02:00 7.6 C 95 % 1018.7 hPa 0.0 l/m 0.0 km/h (0 Bft) N 0.00 h 0 W/m 6.9 C 7.6 C 0.0 km/h (0 Bft)
20.09.2010 03:00 7.0 C 96 % 1018.7 hPa 0.0 l/m 0.0 km/h (0 Bft) N 0.00 h 0 W/m 6.4 C 7.0 C 0.0 km/h (0 Bft)
20.09.2010 04:00 6.6 C 96 % 1018.7 hPa 0.0 l/m 0.0 km/h (0 Bft) N 0.00 h 0 W/m 6.1 C 6.6 C 0.0 km/h (0 Bft)
20.09.2010 05:00 6.2 C 96 % 1018.8 hPa 0.0 l/m 0.0 km/h (0 Bft) N 0.00 h 0 W/m 5.6 C 6.2 C 0.0 km/h (0 Bft)
20.09.2010 06:00 5.8 C 97 % 1019.0 hPa 0.0 l/m 0.0 km/h (0 Bft) N 0.00 h 0 W/m 5.3 C 5.8 C 0.0 km/h (0 Bft)
20.09.2010 07:00 5.8 C 97 % 1019.6 hPa 0.0 l/m 0.0 km/h (0 Bft) N 0.00 h 18 W/m 5.3 C 5.8 C 0.0 km/h (0 Bft)
20.09.2010 08:00 7.2 C 96 % 1020.1 hPa 0.0 l/m 0.0 km/h (0 Bft) N 0.68 h 138 W/m 6.6 C 7.2 C 0.0 km/h (0 Bft)
20.09.2010 09:00 9.8 C 90 % 1020.2 hPa 0.0 l/m 0.0 km/h (0 Bft) N 0.97 h 286 W/m 8.3 C 9.8 C 0.0 km/h (0 Bft)
20.09.2010 10:00 12.3 C 84 % 1020.1 hPa 0.0 l/m 0.1 km/h (0 Bft) O-SO 1.00 h 453 W/m 9.7 C 12.3 C 0.2 km/h (0 Bft)
20.09.2010 11:00 15.5 C 76 % 1019.6 hPa 0.0 l/m 0.7 km/h (0 Bft) S-SO 1.00 h 572 W/m 11.3 C 15.5 C 2.0 km/h (1 Bft)
20.09.2010 12:00 17.2 C 72 % 1018.9 hPa 0.0 l/m 1.5 km/h (1 Bft) SO 1.00 h 643 W/m 12.1 C 17.2 C 3.4 km/h (1 Bft)
20.09.2010 13:00 18.6 C 68 % 1018.1 hPa 0.0 l/m 1.7 km/h (1 Bft) W 1.00 h 658 W/m 12.6 C 18.6 C 4.2 km/h (1 Bft)
20.09.2010 14:00 19.7 C 65 % 1017.4 hPa 0.0 l/m 2.0 km/h (1 Bft) W-NW 0.95 h 601 W/m 12.9 C 19.7 C 4.3 km/h (1 Bft)
20.09.2010 15:00 20.9 C 61 % 1016.9 hPa 0.2 l/m 2.5 km/h (1 Bft) W 0.30 h 223 W/m 13.1 C 20.9 C 5.0 km/h (1 Bft)
20.09.2010 16:00 21.6 C 59 % 1016.7 hPa 0.0 l/m 3.4 km/h (1 Bft) W-SW 1.00 h 415 W/m 13.2 C 21.6 C 6.0 km/h (2 Bft)
20.09.2010 17:00 21.8 C 56 % 1016.6 hPa 0.0 l/m 3.9 km/h (1 Bft) W 1.00 h 268 W/m 12.7 C 21.8 C 6.7 km/h (2 Bft)
20.09.2010 18:00 20.0 C 59 % 1016.7 hPa 0.0 l/m 2.2 km/h (1 Bft) W-SW 0.02 h 33 W/m 11.7 C 20.0 C 4.0 km/h (1 Bft)
20.09.2010 19:00 17.4 C 69 % 1017.1 hPa 0.0 l/m 3.7 km/h (1 Bft) O-SO 0.02 h 14 W/m 11.6 C 17.4 C 4.9 km/h (1 Bft)
20.09.2010 20:00 14.5 C 81 % 1017.6 hPa 0.0 l/m 2.3 km/h (1 Bft) O-SO 0.00 h 0 W/m 11.3 C 14.5 C 3.5 km/h (1 Bft)
20.09.2010 21:00 12.2 C 88 % 1018.4 hPa 0.0 l/m 2.3 km/h (1 Bft) O-SO 0.00 h 0 W/m 10.3 C 12.2 C 3.4 km/h (1 Bft)
20.09.2010 22:00 11.6 C 90 % 1018.7 hPa 0.0 l/m 2.2 km/h (1 Bft) O-SO 0.00 h 0 W/m 10.0 C 11.6 C 3.1 km/h (1 Bft)
20.09.2010 23:00 10.7 C 92 % 1018.9 hPa 0.0 l/m 0.7 km/h (0 Bft) O-SO 0.00 h 0 W/m 9.5 C 10.7 C 1.3 km/h (1 Bft)
21.09.2010 00:00 10.1 C 93 % 1019.0 hPa 0.0 l/m 1.4 km/h (1 Bft) O-SO 0.00 h 0 W/m 9.1 C 10.1 C 2.1 km/h (1 Bft)
21.09.2010 01:00 9.6 C 94 % 1018.9 hPa 0.0 l/m 0.0 km/h (0 Bft) N 0.00 h 0 W/m 8.7 C 9.6 C 0.0 km/h (0 Bft)
21.09.2010 02:00 9.3 C 95 % 1018.9 hPa 0.0 l/m 0.3 km/h (0 Bft) O 0.00 h 0 W/m 8.6 C 9.3 C 0.8 km/h (0 Bft)
21.09.2010 03:00 8.5 C 96 % 1018.9 hPa 0.0 l/m 0.0 km/h (0 Bft) N 0.00 h 0 W/m 7.9 C 8.5 C 0.0 km/h (0 Bft)
21.09.2010 04:00 8.1 C 97 % 1019.0 hPa 0.0 l/m 0.0 km/h (0 Bft) N 0.00 h 0 W/m 7.6 C 8.1 C 0.0 km/h (0 Bft)
21.09.2010 05:00 7.8 C 97 % 1019.4 hPa 0.0 l/m 0.0 km/h (0 Bft) N 0.00 h 0 W/m 7.4 C 7.8 C 0.0 km/h (0 Bft)
21.09.2010 06:00 7.5 C 97 % 1019.6 hPa 0.0 l/m 0.0 km/h (0 Bft) N 0.00 h 0 W/m 7.1 C 7.5 C 0.0 km/h (0 Bft)
21.09.2010 07:00 7.6 C 97 % 1020.1 hPa 0.0 l/m 0.0 km/h (0 Bft) N 0.00 h 18 W/m 7.2 C 7.6 C 0.0 km/h (0 Bft)
21.09.2010 08:00 8.7 C 98 % 1020.6 hPa 0.0 l/m 0.0 km/h (0 Bft) N 0.00 h 65 W/m 8.4 C 8.7 C 0.0 km/h (0 Bft)
21.09.2010 09:00 10.1 C 97 % 1021.0 hPa 0.2 l/m 0.0 km/h (0 Bft) N 0.17 h 184 W/m 9.6 C 10.1 C 0.0 km/h (0 Bft)
21.09.2010 10:00 13.4 C 89 % 1020.9 hPa 0.0 l/m 0.0 km/h (0 Bft) N 1.00 h 440 W/m 11.6 C 13.4 C 0.0 km/h (0 Bft)
21.09.2010 11:00 16.3 C 82 % 1020.6 hPa 0.0 l/m 0.0 km/h (0 Bft) N 1.00 h 562 W/m 13.2 C 16.3 C 0.0 km/h (0 Bft)
21.09.2010 12:00 18.5 C 74 % 1019.9 hPa 0.0 l/m 0.0 km/h (0 Bft) N 1.00 h 637 W/m 13.9 C 18.5 C 0.0 km/h (0 Bft)
21.09.2010 13:00 20.3 C 69 % 1019.4 hPa 0.0 l/m 0.3 km/h (0 Bft) N-NW 1.00 h 652 W/m 14.3 C 20.3 C 0.7 km/h (0 Bft)
21.09.2010 14:00 21.8 C 58 % 1019.0 hPa 0.0 l/m 1.2 km/h (1 Bft) O-SO 1.00 h 632 W/m 13.2 C 21.8 C 3.5 km/h (1 Bft)
21.09.2010 15:00 22.6 C 51 % 1018.5 hPa 0.0 l/m 2.1 km/h (1 Bft) SO 0.38 h 229 W/m 12.0 C 22.6 C 4.3 km/h (1 Bft)
21.09.2010 16:00 23.2 C 44 % 1018.3 hPa 0.0 l/m 2.4 km/h (1 Bft) N 1.00 h 426 W/m 10.2 C 23.2 C 5.0 km/h (1 Bft)
21.09.2010 17:00 22.8 C 48 % 1018.3 hPa 0.0 l/m 3.3 km/h (1 Bft) O-SO 1.00 h 268 W/m 11.3 C 22.8 C 5.7 km/h (1 Bft)
21.09.2010 18:00 21.5 C 53 % 1018.5 hPa 0.0 l/m 2.9 km/h (1 Bft) SO 0.02 h 33 W/m 11.6 C 21.5 C 4.7 km/h (1 Bft)
21.09.2010 19:00 17.9 C 70 % 1019.1 hPa 0.0 l/m 1.2 km/h (1 Bft) SO 0.00 h 12 W/m 12.2 C 17.9 C 2.3 km/h (1 Bft)
21.09.2010 20:00 14.7 C 82 % 1019.8 hPa 0.0 l/m 2.8 km/h (1 Bft) O-SO 0.00 h 0 W/m 11.6 C 14.7 C 4.0 km/h (1 Bft)
21.09.2010 21:00 13.2 C 86 % 1020.3 hPa 0.0 l/m 1.4 km/h (1 Bft) O-SO 0.00 h 0 W/m 11.0 C 13.2 C 2.4 km/h (1 Bft)
21.09.2010 22:00 12.4 C 89 % 1020.5 hPa 0.0 l/m 2.2 km/h (1 Bft) O-SO 0.00 h 0 W/m 10.6 C 12.4 C 3.2 km/h (1 Bft)
21.09.2010 23:00 11.7 C 91 % 1020.5 hPa 0.0 l/m 0.9 km/h (0 Bft) O-SO 0.00 h 0 W/m 10.3 C 11.7 C 1.9 km/h (1 Bft)
22.09.2010 00:00 11.3 C 93 % 1020.5 hPa 0.0 l/m 0.7 km/h (0 Bft) O-SO 0.00 h 0 W/m 10.2 C 11.3 C 1.2 km/h (1 Bft)
22.09.2010 01:00 10.6 C 94 % 1020.6 hPa 0.0 l/m 0.0 km/h (0 Bft) N 0.00 h 0 W/m 9.7 C 10.6 C 0.1 km/h (0 Bft)
22.09.2010 02:00 10.1 C 95 % 1020.5 hPa 0.0 l/m 0.0 km/h (0 Bft) N 0.00 h 0 W/m 9.4 C 10.1 C 0.0 km/h (0 Bft)
22.09.2010 03:00 9.6 C 96 % 1020.5 hPa 0.0 l/m 0.0 km/h (0 Bft) N 0.00 h 0 W/m 9.0 C 9.6 C 0.0 km/h (0 Bft)
22.09.2010 04:00 9.0 C 96 % 1020.6 hPa 0.0 l/m 0.0 km/h (0 Bft) N 0.00 h 0 W/m 8.4 C 9.0 C 0.0 km/h (0 Bft)
22.09.2010 05:00 8.6 C 97 % 1020.8 hPa 0.0 l/m 0.0 km/h (0 Bft) N 0.00 h 0 W/m 8.2 C 8.6 C 0.0 km/h (0 Bft)
22.09.2010 06:00 8.1 C 97 % 1021.1 hPa 0.0 l/m 0.0 km/h (0 Bft) N 0.00 h 0 W/m 7.6 C 8.1 C 0.0 km/h (0 Bft)
22.09.2010 07:00 8.2 C 98 % 1021.5 hPa 0.0 l/m 0.0 km/h (0 Bft) N 0.00 h 17 W/m 7.9 C 8.2 C 0.0 km/h (0 Bft)
22.09.2010 08:00 9.1 C 98 % 1022.0 hPa 0.0 l/m 0.0 km/h (0 Bft) N 0.02 h 80 W/m 8.9 C 9.1 C 0.0 km/h (0 Bft)
22.09.2010 09:00 10.9 C 98 % 1022.0 hPa 0.0 l/m 0.0 km/h (0 Bft) N 0.67 h 230 W/m 10.7 C 10.9 C 0.0 km/h (0 Bft)
22.09.2010 10:00 14.4 C 88 % 1022.0 hPa 0.0 l/m 0.0 km/h (0 Bft) N 1.00 h 429 W/m 12.5 C 14.4 C 0.0 km/h (0 Bft)
22.09.2010 11:00 17.2 C 80 % 1021.6 hPa 0.0 l/m 0.0 km/h (0 Bft) N 1.00 h 549 W/m 13.8 C 17.2 C 0.0 km/h (0 Bft)
22.09.2010 12:00 19.3 C 73 % 1020.9 hPa 0.0 l/m 0.0 km/h (0 Bft) N 1.00 h 617 W/m 14.2 C 19.3 C 0.0 km/h (0 Bft)
22.09.2010 13:00 20.8 C 67 % 1020.3 hPa 0.0 l/m 0.0 km/h (0 Bft) N 1.00 h 616 W/m 14.4 C 20.8 C 0.0 km/h (0 Bft)
22.09.2010 14:00 22.0 C 64 % 1019.4 hPa 0.0 l/m 0.0 km/h (0 Bft) N 1.00 h 603 W/m 14.8 C 22.0 C 0.0 km/h (0 Bft)
22.09.2010 15:00 23.1 C 60 % 1018.8 hPa 0.0 l/m 0.0 km/h (0 Bft) N 0.35 h 223 W/m 14.8 C 23.1 C 0.0 km/h (0 Bft)
22.09.2010 16:00 23.8 C 56 % 1018.3 hPa 0.0 l/m 0.0 km/h (0 Bft) N 1.00 h 404 W/m 14.5 C 23.8 C 0.0 km/h (0 Bft)
22.09.2010 17:00 23.3 C 53 % 1018.0 hPa 0.0 l/m 0.0 km/h (0 Bft) N 1.00 h 248 W/m 13.0 C 23.3 C 0.0 km/h (0 Bft)
22.09.2010 18:00 21.8 C 61 % 1018.0 hPa 0.0 l/m 0.0 km/h (0 Bft) N 0.00 h 35 W/m 13.9 C 21.8 C 0.0 km/h (0 Bft)
22.09.2010 19:00 19.1 C 74 % 1017.9 hPa 0.0 l/m 0.0 km/h (0 Bft) N 0.03 h 12 W/m 14.2 C 19.1 C 0.0 km/h (0 Bft)
22.09.2010 20:00 16.0 C 86 % 1018.5 hPa 0.0 l/m 0.0 km/h (0 Bft) N 0.00 h 0 W/m 13.6 C 16.0 C 0.0 km/h (0 Bft)
22.09.2010 21:00 14.4 C 91 % 1018.6 hPa 0.0 l/m 0.0 km/h (0 Bft) N 0.00 h 0 W/m 12.9 C 14.4 C 0.0 km/h (0 Bft)
22.09.2010 22:00 13.5 C 93 % 1018.6 hPa 0.0 l/m 0.0 km/h (0 Bft) N 0.00 h 0 W/m 12.4 C 13.5 C 0.0 km/h (0 Bft)
22.09.2010 23:00 13.0 C 94 % 1018.5 hPa 0.0 l/m 0.0 km/h (0 Bft) N 0.00 h 0 W/m 12.0 C 13.0 C 0.0 km/h (0 Bft)
23.09.2010 00:00 12.2 C 95 % 1018.5 hPa 0.0 l/m 0.0 km/h (0 Bft) N 0.00 h 0 W/m 11.4 C 12.2 C 0.0 km/h (0 Bft)
23.09.2010 01:00 11.7 C 96 % 1018.4 hPa 0.0 l/m 0.0 km/h (0 Bft) N 0.00 h 0 W/m 11.1 C 11.7 C 0.0 km/h (0 Bft)
23.09.2010 02:00 11.1 C 97 % 1018.3 hPa 0.0 l/m 0.0 km/h (0 Bft) N 0.00 h 0 W/m 10.5 C 11.1 C 0.0 km/h (0 Bft)
23.09.2010 03:00 10.4 C 97 % 1018.1 hPa 0.0 l/m 0.0 km/h (0 Bft) N 0.00 h 0 W/m 9.9 C 10.4 C 0.0 km/h (0 Bft)
23.09.2010 04:00 10.1 C 97 % 1017.9 hPa 0.0 l/m 0.0 km/h (0 Bft) N 0.00 h 0 W/m 9.7 C 10.1 C 0.0 km/h (0 Bft)
23.09.2010 05:00 10.6 C 98 % 1017.5 hPa 0.0 l/m 0.0 km/h (0 Bft) N 0.00 h 0 W/m 10.3 C 10.6 C 0.0 km/h (0 Bft)
23.09.2010 06:00 10.7 C 98 % 1017.6 hPa 0.2 l/m 0.0 km/h (0 Bft) N 0.00 h 0 W/m 10.5 C 10.7 C 0.0 km/h (0 Bft)
23.09.2010 07:00 10.2 C 99 % 1017.8 hPa 0.0 l/m 0.0 km/h (0 Bft) N 0.00 h 15 W/m 10.0 C 10.2 C 0.0 km/h (0 Bft)
23.09.2010 08:00 10.6 C 99 % 1017.8 hPa 0.0 l/m 0.0 km/h (0 Bft) N 0.00 h 28 W/m 10.4 C 10.6 C 0.0 km/h (0 Bft)
23.09.2010 09:00 11.8 C 98 % 1017.4 hPa 0.0 l/m 0.0 km/h (0 Bft) N 0.00 h 0 W/m 11.5 C 11.8 C 0.0 km/h (0 Bft)
23.09.2010 10:00 13.0 C 98 % 1017.1 hPa 0.0 l/m 0.0 km/h (0 Bft) N 0.00 h 0 W/m 12.7 C 13.0 C 0.0 km/h (0 Bft)
23.09.2010 11:00 15.3 C 92 % 1016.4 hPa 0.0 l/m 0.0 km/h (0 Bft) N 0.62 h 529 W/m 14.0 C 15.3 C 0.0 km/h (0 Bft)
23.09.2010 12:00 18.9 C 82 % 1015.2 hPa 0.0 l/m 0.0 km/h (0 Bft) N 1.00 h 590 W/m 15.7 C 18.9 C 0.1 km/h (0 Bft)
23.09.2010 13:00 21.4 C 73 % 1014.2 hPa 0.0 l/m 0.0 km/h (0 Bft) N 1.00 h 567 W/m 16.3 C 21.4 C 0.3 km/h (0 Bft)
23.09.2010 14:00 22.8 C 64 % 1013.3 hPa 0.0 l/m 0.0 km/h (0 Bft) N 0.93 h 528 W/m 15.6 C 22.8 C 0.7 km/h (0 Bft)
23.09.2010 15:00 23.6 C 63 % 1012.5 hPa 0.0 l/m 0.0 km/h (0 Bft) N 0.20 h 218 W/m 16.1 C 23.6 C 0.7 km/h (0 Bft)
23.09.2010 16:00 23.6 C 62 % 1012.0 hPa 0.0 l/m 0.0 km/h (0 Bft) N 0.97 h 331 W/m 15.8 C 23.6 C 1.2 km/h (1 Bft)
23.09.2010 17:00 23.3 C 59 % 1011.4 hPa 0.0 l/m 0.0 km/h (0 Bft) N 0.60 h 207 W/m 14.8 C 23.3 C 0.9 km/h (0 Bft)
23.09.2010 18:00 22.4 C 63 % 1010.9 hPa 0.0 l/m 0.0 km/h (0 Bft) N 0.77 h 87 W/m 15.0 C 22.4 C 0.7 km/h (0 Bft)
23.09.2010 19:00 19.8 C 73 % 1010.6 hPa 0.0 l/m 0.0 km/h (0 Bft) N 0.23 h 19 W/m 14.9 C 19.8 C 0.1 km/h (0 Bft)
23.09.2010 20:00 17.0 C 83 % 1010.4 hPa 0.0 l/m 0.0 km/h (0 Bft) N 0.00 h 0 W/m 14.1 C 17.0 C 0.0 km/h (0 Bft)
23.09.2010 21:00 15.6 C 89 % 1010.4 hPa 0.0 l/m 0.0 km/h (0 Bft) N 0.00 h 0 W/m 13.8 C 15.6 C 0.0 km/h (0 Bft)
23.09.2010 22:00 14.8 C 92 % 1010.2 hPa 0.0 l/m 0.0 km/h (0 Bft) N 0.00 h 0 W/m 13.4 C 14.8 C 0.0 km/h (0 Bft)
23.09.2010 23:00 13.6 C 94 % 1010.2 hPa 0.0 l/m 0.0 km/h (0 Bft) N 0.00 h 0 W/m 12.7 C 13.6 C 0.0 km/h (0 Bft)
24.09.2010 00:00 13.1 C 95 % 1009.9 hPa 0.0 l/m 0.0 km/h (0 Bft) N 0.00 h 0 W/m 12.3 C 13.1 C 0.0 km/h (0 Bft)
24.09.2010 01:00 12.5 C 96 % 1009.5 hPa 0.0 l/m 0.0 km/h (0 Bft) N 0.00 h 0 W/m 11.9 C 12.5 C 0.0 km/h (0 Bft)
24.09.2010 02:00 12.1 C 97 % 1008.9 hPa 0.0 l/m 0.0 km/h (0 Bft) N 0.00 h 0 W/m 11.7 C 12.1 C 0.0 km/h (0 Bft)
24.09.2010 03:00 11.9 C 97 % 1008.2 hPa 0.0 l/m 0.0 km/h (0 Bft) N 0.00 h 0 W/m 11.5 C 11.9 C 0.0 km/h (0 Bft)
24.09.2010 04:00 11.4 C 98 % 1007.3 hPa 0.0 l/m 0.0 km/h (0 Bft) N 0.00 h 0 W/m 11.1 C 11.4 C 0.0 km/h (0 Bft)
24.09.2010 05:00 11.5 C 98 % 1006.6 hPa 0.0 l/m 0.0 km/h (0 Bft) N 0.00 h 0 W/m 11.2 C 11.5 C 0.0 km/h (0 Bft)
24.09.2010 06:00 11.8 C 98 % 1006.0 hPa 0.0 l/m 0.0 km/h (0 Bft) N 0.00 h 0 W/m 11.4 C 11.8 C 0.0 km/h (0 Bft)
24.09.2010 07:00 11.7 C 98 % 1005.8 hPa 0.0 l/m 0.0 km/h (0 Bft) N 0.03 h 17 W/m 11.4 C 11.7 C 0.0 km/h (0 Bft)
24.09.2010 08:00 12.1 C 98 % 1005.6 hPa 0.2 l/m 0.0 km/h (0 Bft) N 0.00 h 70 W/m 11.8 C 12.1 C 0.0 km/h (0 Bft)
24.09.2010 09:00 13.5 C 96 % 1005.3 hPa 0.0 l/m 0.0 km/h (0 Bft) N 0.08 h 165 W/m 12.9 C 13.5 C 0.0 km/h (0 Bft)
24.09.2010 10:00 14.6 C 94 % 1004.7 hPa 0.0 l/m 0.0 km/h (0 Bft) N 0.00 h 185 W/m 13.7 C 14.6 C 0.0 km/h (0 Bft)
24.09.2010 11:00 15.9 C 91 % 1004.0 hPa 0.0 l/m 0.0 km/h (0 Bft) N 0.12 h 212 W/m 14.5 C 15.9 C 0.0 km/h (0 Bft)
24.09.2010 12:00 16.5 C 90 % 1003.3 hPa 0.0 l/m 0.0 km/h (0 Bft) N 0.00 h 151 W/m 14.9 C 16.5 C 0.0 km/h (0 Bft)
24.09.2010 13:00 16.3 C 92 % 1003.1 hPa 0.0 l/m 0.0 km/h (0 Bft) N 0.00 h 77 W/m 15.0 C 16.3 C 0.3 km/h (0 Bft)
24.09.2010 14:00 15.2 C 93 % 1003.4 hPa 1.2 l/m 3.8 km/h (1 Bft) W 0.00 h 43 W/m 14.1 C 15.2 C 5.4 km/h (1 Bft)
24.09.2010 15:00 14.3 C 98 % 1003.8 hPa 3.2 l/m 0.0 km/h (0 Bft) N 0.00 h 40 W/m 13.9 C 14.3 C 0.0 km/h (0 Bft)
24.09.2010 16:00 13.5 C 98 % 1004.0 hPa 2.2 l/m 2.7 km/h (1 Bft) W 0.00 h 36 W/m 13.1 C 13.5 C 4.8 km/h (1 Bft)
24.09.2010 17:00 12.7 C 98 % 1004.2 hPa 2.4 l/m 1.0 km/h (0 Bft) W 0.00 h 24 W/m 12.4 C 12.7 C 2.5 km/h (1 Bft)
24.09.2010 18:00 12.6 C 97 % 1004.5 hPa 1.6 l/m 1.9 km/h (1 Bft) S-SO 0.00 h 17 W/m 12.1 C 12.6 C 4.4 km/h (1 Bft)
24.09.2010 19:00 12.4 C 97 % 1005.0 hPa 2.4 l/m 2.3 km/h (1 Bft) S-SO 0.00 h 0 W/m 11.9 C 12.4 C 5.2 km/h (1 Bft)
24.09.2010 20:00 12.1 C 97 % 1005.6 hPa 0.0 l/m 4.2 km/h (1 Bft) S-SO 0.00 h 0 W/m 11.6 C 12.1 C 8.6 km/h (2 Bft)
24.09.2010 21:00 11.9 C 96 % 1005.8 hPa 0.0 l/m 3.1 km/h (1 Bft) S-SO 0.00 h 0 W/m 11.3 C 11.9 C 6.3 km/h (2 Bft)
24.09.2010 22:00 11.8 C 96 % 1005.6 hPa 0.0 l/m 1.1 km/h (0 Bft) S-SO 0.00 h 0 W/m 11.2 C 11.8 C 3.4 km/h (1 Bft)
24.09.2010 23:00 11.6 C 97 % 1005.4 hPa 0.0 l/m 1.1 km/h (0 Bft) S-SO 0.00 h 0 W/m 11.2 C 11.6 C 3.2 km/h (1 Bft)
25.09.2010 00:00 11.7 C 97 % 1005.1 hPa 0.0 l/m 1.3 km/h (1 Bft) S-SO 0.00 h 0 W/m 11.2 C 11.7 C 3.0 km/h (1 Bft)
25.09.2010 01:00 11.6 C 97 % 1004.4 hPa 0.0 l/m 1.0 km/h (0 Bft) S 0.00 h 0 W/m 11.1 C 11.6 C 2.7 km/h (1 Bft)
25.09.2010 02:00 11.4 C 97 % 1004.3 hPa 0.0 l/m 0.4 km/h (0 Bft) W-SW 0.00 h 0 W/m 11.0 C 11.4 C 1.8 km/h (1 Bft)
25.09.2010 03:00 11.1 C 98 % 1003.8 hPa 0.0 l/m 2.0 km/h (1 Bft) W-SW 0.00 h 0 W/m 10.8 C 11.1 C 4.5 km/h (1 Bft)
25.09.2010 04:00 11.1 C 98 % 1003.6 hPa 0.0 l/m 2.8 km/h (1 Bft) W 0.00 h 0 W/m 10.8 C 11.1 C 5.6 km/h (1 Bft)
25.09.2010 05:00 11.1 C 98 % 1003.3 hPa 0.6 l/m 3.0 km/h (1 Bft) W 0.00 h 0 W/m 10.8 C 11.1 C 6.0 km/h (2 Bft)
25.09.2010 06:00 11.0 C 98 % 1003.0 hPa 1.8 l/m 1.7 km/h (1 Bft) W 0.00 h 0 W/m 10.7 C 11.0 C 3.8 km/h (1 Bft)
25.09.2010 07:00 10.9 C 98 % 1002.6 hPa 2.0 l/m 1.1 km/h (1 Bft) W 0.00 h 6 W/m 10.6 C 10.9 C 2.5 km/h (1 Bft)
25.09.2010 08:00 10.8 C 98 % 1002.7 hPa 2.0 l/m 3.0 km/h (1 Bft) W-NW 0.00 h 12 W/m 10.5 C 10.8 C 6.3 km/h (2 Bft)
25.09.2010 09:00 11.1 C 98 % 1002.9 hPa 0.2 l/m 1.5 km/h (1 Bft) W 0.00 h 49 W/m 10.8 C 11.1 C 3.5 km/h (1 Bft)
25.09.2010 10:00 11.7 C 98 % 1002.8 hPa 0.2 l/m 1.0 km/h (0 Bft) NW 0.00 h 119 W/m 11.4 C 11.7 C 2.0 km/h (1 Bft)
25.09.2010 11:00 11.9 C 97 % 1003.0 hPa 0.0 l/m 5.0 km/h (1 Bft) W-NW 0.00 h 131 W/m 11.5 C 11.9 C 9.3 km/h (2 Bft)
25.09.2010 12:00 11.4 C 98 % 1003.5 hPa 1.6 l/m 6.8 km/h (2 Bft) W 0.00 h 86 W/m 11.1 C 11.4 C 11.8 km/h (2 Bft)
25.09.2010 13:00 11.6 C 99 % 1003.7 hPa 1.0 l/m 7.1 km/h (2 Bft) W 0.00 h 105 W/m 11.4 C 11.6 C 12.9 km/h (3 Bft)
25.09.2010 14:00 11.9 C 99 % 1004.0 hPa 0.4 l/m 3.2 km/h (1 Bft) W 0.00 h 97 W/m 11.7 C 11.9 C 7.1 km/h (2 Bft)
25.09.2010 15:00 12.4 C 97 % 1004.2 hPa 0.8 l/m 0.6 km/h (0 Bft) SO 0.00 h 124 W/m 12.0 C 12.4 C 2.3 km/h (1 Bft)
25.09.2010 16:00 12.4 C 96 % 1004.7 hPa 0.6 l/m 1.8 km/h (1 Bft) SO 0.00 h 49 W/m 11.8 C 12.4 C 3.7 km/h (1 Bft)
25.09.2010 17:00 12.1 C 97 % 1005.1 hPa 0.0 l/m 2.2 km/h (1 Bft) N 0.00 h 44 W/m 11.6 C 12.1 C 4.0 km/h (1 Bft)
25.09.2010 18:00 11.3 C 95 % 1006.2 hPa 0.2 l/m 2.5 km/h (1 Bft) N-NO 0.00 h 22 W/m 10.5 C 11.3 C 4.8 km/h (1 Bft)
25.09.2010 19:00 10.1 C 96 % 1007.2 hPa 0.0 l/m 5.5 km/h (1 Bft) W 0.00 h 7 W/m 9.6 C 10.0 C 9.1 km/h (2 Bft)
25.09.2010 20:00 9.8 C 96 % 1008.2 hPa 0.0 l/m 1.8 km/h (1 Bft) W-NW 0.00 h 0 W/m 9.2 C 9.8 C 4.1 km/h (1 Bft)
25.09.2010 21:00 9.8 C 95 % 1008.9 hPa 0.0 l/m 0.4 km/h (0 Bft) NW 0.00 h 0 W/m 9.0 C 9.8 C 1.3 km/h (1 Bft)
25.09.2010 22:00 9.5 C 94 % 1009.3 hPa 0.2 l/m 0.4 km/h (0 Bft) N-NW 0.00 h 0 W/m 8.6 C 9.5 C 1.1 km/h (0 Bft)
25.09.2010 23:00 9.4 C 94 % 1009.7 hPa 0.0 l/m 0.2 km/h (0 Bft) N 0.00 h 0 W/m 8.5 C 9.4 C 0.9 km/h (0 Bft)
26.09.2010 00:00 9.2 C 95 % 1009.6 hPa 0.0 l/m 0.2 km/h (0 Bft) SW 0.00 h 0 W/m 8.4 C 9.2 C 1.0 km/h (0 Bft)
26.09.2010 01:00 9.2 C 94 % 1009.4 hPa 0.0 l/m 0.8 km/h (0 Bft) W-SW 0.00 h 0 W/m 8.3 C 9.2 C 2.0 km/h (1 Bft)
26.09.2010 02:00 9.1 C 95 % 1009.4 hPa 0.8 l/m 0.9 km/h (0 Bft) W 0.00 h 0 W/m 8.4 C 9.1 C 2.6 km/h (1 Bft)
26.09.2010 03:00 8.7 C 97 % 1009.6 hPa 3.8 l/m 1.2 km/h (1 Bft) SO 0.00 h 0 W/m 8.3 C 8.7 C 2.2 km/h (1 Bft)
26.09.2010 04:00 8.4 C 96 % 1009.3 hPa 0.0 l/m 1.4 km/h (1 Bft) O-SO 0.00 h 0 W/m 7.8 C 8.3 C 2.9 km/h (1 Bft)
26.09.2010 05:00 8.2 C 97 % 1009.5 hPa 0.2 l/m 0.1 km/h (0 Bft) O-SO 0.00 h 0 W/m 7.6 C 8.2 C 0.4 km/h (0 Bft)
26.09.2010 06:00 7.7 C 97 % 1009.6 hPa 0.0 l/m 0.2 km/h (0 Bft) S 0.00 h 0 W/m 7.3 C 7.7 C 0.7 km/h (0 Bft)
26.09.2010 07:00 7.8 C 97 % 1009.9 hPa 0.0 l/m 0.1 km/h (0 Bft) S 0.00 h 10 W/m 7.3 C 7.8 C 0.8 km/h (0 Bft)
26.09.2010 08:00 7.9 C 97 % 1009.9 hPa 0.0 l/m 0.4 km/h (0 Bft) S-SO 0.05 h 61 W/m 7.5 C 7.9 C 1.2 km/h (1 Bft)
26.09.2010 09:00 8.5 C 97 % 1010.0 hPa 0.0 l/m 0.4 km/h (0 Bft) S 0.00 h 80 W/m 8.0 C 8.5 C 2.0 km/h (1 Bft)
26.09.2010 10:00 9.4 C 95 % 1009.9 hPa 0.0 l/m 0.5 km/h (0 Bft) W-SW 0.27 h 227 W/m 8.7 C 9.4 C 1.7 km/h (1 Bft)
26.09.2010 11:00 10.6 C 89 % 1009.8 hPa 0.0 l/m 3.1 km/h (1 Bft) W 0.50 h 408 W/m 8.9 C 10.5 C 5.5 km/h (1 Bft)
26.09.2010 12:00 10.6 C 87 % 1009.8 hPa 0.0 l/m 3.8 km/h (1 Bft) W 0.23 h 324 W/m 8.5 C 10.5 C 6.8 km/h (2 Bft)
26.09.2010 13:00 10.7 C 84 % 1009.7 hPa 0.0 l/m 5.6 km/h (1 Bft) W-NW 0.00 h 265 W/m 8.2 C 10.7 C 9.3 km/h (2 Bft)
26.09.2010 14:00 11.8 C 79 % 1009.5 hPa 0.0 l/m 9.8 km/h (2 Bft) W 0.77 h 430 W/m 8.2 C 11.8 C 15.7 km/h (3 Bft)
26.09.2010 15:00 13.0 C 73 % 1009.3 hPa 0.0 l/m 8.7 km/h (2 Bft) W 0.33 h 224 W/m 8.2 C 13.0 C 14.1 km/h (3 Bft)
26.09.2010 16:00 13.3 C 70 % 1009.3 hPa 0.0 l/m 10.0 km/h (2 Bft) W 0.85 h 365 W/m 7.9 C 13.3 C 15.3 km/h (3 Bft)
26.09.2010 17:00 12.9 C 71 % 1009.6 hPa 0.2 l/m 9.6 km/h (2 Bft) W 0.88 h 219 W/m 7.7 C 12.9 C 14.6 km/h (3 Bft)
26.09.2010 18:00 11.6 C 75 % 1010.2 hPa 0.0 l/m 7.8 km/h (2 Bft) W 0.48 h 64 W/m 7.2 C 11.6 C 12.0 km/h (2 Bft)
26.09.2010 19:00 10.4 C 80 % 1010.7 hPa 0.0 l/m 5.5 km/h (1 Bft) W 0.13 h 13 W/m 7.1 C 10.4 C 9.4 km/h (2 Bft)
26.09.2010 20:00 9.8 C 84 % 1011.3 hPa 0.0 l/m 0.5 km/h (0 Bft) W-NW 0.00 h 0 W/m 7.2 C 9.8 C 1.7 km/h (1 Bft)
26.09.2010 21:00 9.5 C 87 % 1011.8 hPa 0.0 l/m 0.6 km/h (0 Bft) W-NW 0.00 h 0 W/m 7.4 C 9.5 C 1.9 km/h (1 Bft)
26.09.2010 22:00 9.1 C 90 % 1012.2 hPa 0.0 l/m 0.1 km/h (0 Bft) W-NW 0.00 h 0 W/m 7.5 C 9.1 C 0.3 km/h (0 Bft)
26.09.2010 23:00 8.8 C 92 % 1012.4 hPa 0.0 l/m 0.0 km/h (0 Bft) N 0.00 h 0 W/m 7.5 C 8.8 C 0.1 km/h (0 Bft)
Min-Datum _ 20.09.10 21.09.10 25.09.10 - 20.09.10 - - - 20.09.10 20.09.10 20.09.10
_ Min-Zeit 06:29 16:05 07:30 - 00:00 - - - 06:29 06:29 00:00
Minimum _ 5.4 C 38 % 1002.5 hPa - 0.0 km/h (0 Bft) - - - 4.8 C 5.4 C 0.0 km/h (0 Bft)
Max-Datum _ 22.09.10 20.09.10 22.09.10 26.09.10 26.09.10 - 20.09.10 26.09.10 23.09.10 22.09.10 26.09.10
_ Max-Zeit 16:48 07:42 10:15 03:35 17:28 - 08:06 12:06 13:58 16:48 18:54
Maximum _ 24.3 C 100 % 1022.2 hPa 3.8 l/m 17.9 km/h
W (3 Bft)
- 0.02 h 816 W/m 17.8 C 24.3 C 27.8 km/h
W (4 Bft)
Durchschnitt _ 13.1 C 88 % 1013.3 hPa #30.4 l/m 1.2 km/h (1 Bft) W #35:37 h 230 W/m 10.8 C 13.1 C 2.3 km/h (1 Bft)
© Kaiko 2010